This is the latest recevied weather packets stored in our database for station/object DK4SDR-10. If no packets are shown the sender has not sent any weather packets the latest 1 day(s).
| Time | Temp. | Humidity | Pressure | Rain* | Wind** | Luminosity | Snow |
|---|---|---|---|---|---|---|---|
| 1778101473 | 16.11° C | 60% | 1009.1 hPa | - | - | - | - |
| 1778100573 | 16.11° C | 59% | 1009 hPa | - | - | - | - |
| 1778098773 | 16.11° C | 58% | 1008.8 hPa | - | - | - | - |
| 1778097873 | 16.67° C | 58% | 1008.7 hPa | - | - | - | - |
| 1778096073 | 16.67° C | 57% | 1008.2 hPa | - | - | - | - |
| 1778094273 | 17.22° C | 57% | 1008 hPa | - | - | - | - |
| 1778093373 | 17.22° C | 56% | 1007.9 hPa | - | - | - | - |
| 1778092473 | 17.78° C | 55% | 1007.6 hPa | - | - | - | - |
| 1778091573 | 17.78° C | 55% | 1007.3 hPa | - | - | - | - |
| 1778090673 | 17.78° C | 55% | 1007.3 hPa | - | - | - | - |
| 1778089773 | 18.33° C | 54% | 1007.2 hPa | - | - | - | - |
| 1778088873 | 18.33° C | 54% | 1007.1 hPa | - | - | - | - |
| 1778087973 | 18.89° C | 54% | 1007 hPa | - | - | - | - |
| 1778087073 | 19.44° C | 54% | 1006.8 hPa | - | - | - | - |
| 1778086173 | 19.44° C | 53% | 1006.6 hPa | - | - | - | - |
| 1778084373 | 20.56° C | 51% | 1006.4 hPa | - | - | - | - |
| 1778083473 | 21.11° C | 49% | 1006.4 hPa | - | - | - | - |
| 1778051913 | 14.44° C | 63% | 1007.1 hPa | - | - | - | - |
| 1778042912 | 14.44° C | 60% | 1007.4 hPa | - | - | - | - |
| 1778037512 | 15° C | 59% | 1007.5 hPa | - | - | - | - |
| 1778035712 | 15° C | 59% | 1007.5 hPa | - | - | - | - |
| 1778031212 | 15.56° C | 60% | 1007.4 hPa | - | - | - | - |
| 1778030312 | 15.56° C | 59% | 1007.5 hPa | - | - | - | - |
| 1778029412 | 15.56° C | 59% | 1007.6 hPa | - | - | - | - |
| 1778028512 | 15.56° C | 59% | 1007.7 hPa | - | - | - | - |
* Rain since midnight (hover to see other rain measurements)
** Current wind speed in m/s (hover to see current wind gust speed)